createdAt,value
2016-06-17T00:00:05.619Z,15.57
2016-06-17T00:00:15.619Z,15.69
2016-06-17T00:00:25.651Z,15.57
2016-06-17T00:00:35.635Z,15.54
2016-06-17T00:00:45.635Z,15.64
2016-06-17T00:00:55.635Z,15.6
2016-06-17T00:01:05.639Z,15.57
2016-06-17T00:01:15.655Z,15.68
2016-06-17T00:01:25.655Z,15.54
2016-06-17T00:01:35.670Z,15.6
2016-06-17T00:01:45.670Z,15.6
2016-06-17T00:01:55.670Z,15.57
2016-06-17T00:02:05.533Z,15.57
2016-06-17T00:02:15.689Z,15.68
2016-06-17T00:02:25.689Z,15.6
2016-06-17T00:02:35.548Z,15.57
2016-06-17T00:02:45.704Z,15.6
2016-06-17T00:02:55.704Z,15.6
2016-06-17T00:03:05.723Z,15.64
2016-06-17T00:03:15.723Z,15.57
2016-06-17T00:03:25.723Z,15.62
2016-06-17T00:03:35.739Z,15.57
2016-06-17T00:03:45.739Z,15.57
2016-06-17T00:03:55.770Z,15.59
2016-06-17T00:04:05.743Z,15.57
2016-06-17T00:04:15.758Z,15.64
2016-06-17T00:04:25.774Z,15.64
2016-06-17T00:04:35.758Z,15.54
2016-06-17T00:04:45.774Z,15.57
2016-06-17T00:04:55.774Z,15.59
2016-06-17T00:05:05.778Z,15.54
2016-06-17T00:05:15.778Z,15.62
2016-06-17T00:05:25.794Z,15.57
2016-06-17T00:05:35.794Z,15.57
2016-06-17T00:05:45.809Z,15.54
2016-06-17T00:05:55.653Z,15.6
2016-06-17T00:06:05.812Z,15.57
2016-06-17T00:06:15.828Z,15.56
2016-06-17T00:06:25.828Z,15.54
2016-06-17T00:06:35.828Z,15.59
2016-06-17T00:06:45.828Z,15.62
2016-06-17T00:06:55.843Z,15.56
2016-06-17T00:07:05.846Z,15.62
2016-06-17T00:07:15.846Z,15.57
2016-06-17T00:07:25.862Z,15.59
2016-06-17T00:07:35.862Z,15.6
2016-06-17T00:07:45.862Z,15.64
2016-06-17T00:07:55.721Z,15.44
2016-06-17T00:08:05.882Z,15.62
2016-06-17T00:08:15.882Z,15.56
2016-06-17T00:08:25.897Z,15.64
2016-06-17T00:08:35.897Z,15.64
2016-06-17T00:08:45.757Z,15.62
2016-06-17T00:08:55.913Z,15.59
2016-06-17T00:09:05.916Z,15.64
2016-06-17T00:09:15.916Z,15.64
2016-06-17T00:09:25.932Z,15.64
2016-06-17T00:09:35.932Z,15.57
2016-06-17T00:09:45.932Z,15.64
2016-06-17T00:09:56.541Z,15.56
2016-06-17T00:10:05.951Z,15.59
2016-06-17T00:10:15.951Z,15.62
2016-06-17T00:10:25.967Z,15.5
2016-06-17T00:10:35.967Z,15.57
2016-06-17T00:10:45.967Z,15.64
2016-06-17T00:10:55.826Z,15.57
2016-06-17T00:11:05.985Z,15.62
2016-06-17T00:11:15.829Z,15.56
2016-06-17T00:11:25.985Z,15.57
2016-06-17T00:11:35.845Z,15.65
2016-06-17T00:11:46.001Z,15.6
2016-06-17T00:11:56.001Z,15.54
2016-06-17T00:12:05.849Z,15.57
2016-06-17T00:12:16.021Z,15.57
2016-06-17T00:12:26.021Z,15.57
2016-06-17T00:12:36.021Z,15.59
2016-06-17T00:12:46.036Z,15.54
2016-06-17T00:12:55.896Z,15.57
2016-06-17T00:13:06.039Z,15.54
2016-06-17T00:13:16.180Z,15.59
2016-06-17T00:13:26.055Z,15.59
2016-06-17T00:13:36.055Z,15.57
2016-06-17T00:13:46.071Z,15.56
2016-06-17T00:13:56.071Z,15.57
2016-06-17T00:14:06.089Z,15.62
2016-06-17T00:14:16.089Z,15.6
2016-06-17T00:14:25.933Z,15.54
2016-06-17T00:14:36.089Z,15.53
2016-06-17T00:14:46.089Z,15.69
2016-06-17T00:14:56.105Z,15.47
2016-06-17T00:15:05.953Z,15.59
2016-06-17T00:15:16.124Z,15.54
2016-06-17T00:15:26.140Z,15.56
2016-06-17T00:15:36.124Z,15.59
2016-06-17T00:15:45.968Z,15.54
2016-06-17T00:15:56.140Z,15.57
2016-06-17T00:16:06.144Z,15.6
2016-06-17T00:16:16.144Z,15.6
2016-06-17T00:16:26.160Z,15.69
2016-06-17T00:16:36.160Z,15.65
2016-06-17T00:16:46.160Z,15.64
2016-06-17T00:16:56.175Z,15.57
2016-06-17T00:17:06.178Z,15.57
2016-06-17T00:17:16.178Z,15.62
2016-06-17T00:17:26.194Z,15.6
2016-06-17T00:17:36.194Z,15.59
2016-06-17T00:17:46.038Z,15.67
2016-06-17T00:17:56.210Z,15.62
2016-06-17T00:18:06.213Z,15.65
2016-06-17T00:18:16.213Z,15.67
2016-06-17T00:18:26.228Z,15.68
2016-06-17T00:18:36.228Z,15.59
2016-06-17T00:18:46.228Z,15.65
2016-06-17T00:18:56.088Z,15.67
2016-06-17T00:19:06.248Z,15.67
2016-06-17T00:19:16.248Z,15.65
2016-06-17T00:19:26.248Z,15.67
2016-06-17T00:19:36.279Z,15.64
2016-06-17T00:19:46.263Z,15.65
2016-06-17T00:19:56.295Z,15.65
2016-06-17T00:20:06.282Z,15.67
2016-06-17T00:20:16.282Z,15.67
2016-06-17T00:20:26.282Z,15.67
2016-06-17T00:20:36.298Z,15.65
2016-06-17T00:20:46.298Z,15.64
2016-06-17T00:20:56.298Z,15.6
2016-06-17T00:21:06.302Z,15.62
2016-06-17T00:21:16.317Z,15.64
2016-06-17T00:21:26.317Z,15.64
2016-06-17T00:21:36.317Z,15.71
2016-06-17T00:21:46.317Z,15.62
2016-06-17T00:21:56.177Z,15.65
2016-06-17T00:22:06.352Z,15.64
2016-06-17T00:22:16.352Z,15.57
2016-06-17T00:22:26.352Z,15.64
2016-06-17T00:22:36.195Z,15.64
2016-06-17T00:22:46.367Z,15.65
2016-06-17T00:22:56.367Z,15.65
2016-06-17T00:23:06.402Z,15.64
2016-06-17T00:23:16.387Z,15.71
2016-06-17T00:23:26.387Z,15.65
2016-06-17T00:23:36.387Z,15.6
2016-06-17T00:23:46.402Z,15.68
2016-06-17T00:23:56.402Z,15.68
2016-06-17T00:24:06.405Z,15.67
2016-06-17T00:24:16.405Z,15.67
2016-06-17T00:24:26.421Z,15.68
2016-06-17T00:24:36.421Z,15.65
2016-06-17T00:24:46.421Z,15.62
2016-06-17T00:24:56.437Z,15.68
2016-06-17T00:25:06.441Z,15.65
2016-06-17T00:25:16.456Z,15.71
2016-06-17T00:25:26.456Z,15.68
2016-06-17T00:25:36.456Z,15.68
2016-06-17T00:25:46.456Z,15.65
2016-06-17T00:25:56.472Z,15.64
2016-06-17T00:26:06.475Z,15.6
2016-06-17T00:26:16.319Z,15.57
2016-06-17T00:26:26.491Z,15.62
2016-06-17T00:26:36.491Z,15.64
2016-06-17T00:26:46.491Z,15.72
2016-06-17T00:26:56.506Z,15.71
2016-06-17T00:27:06.526Z,15.69
2016-06-17T00:27:16.526Z,15.71
2016-06-17T00:27:26.370Z,15.69
2016-06-17T00:27:36.526Z,15.72
2016-06-17T00:27:46.541Z,15.57
2016-06-17T00:27:56.541Z,15.57
2016-06-17T00:28:06.544Z,15.67
2016-06-17T00:28:16.544Z,15.72
2016-06-17T00:28:26.560Z,15.6
2016-06-17T00:28:36.654Z,15.78
2016-06-17T00:28:46.560Z,15.68
2016-06-17T00:28:56.560Z,15.69
2016-06-17T00:29:06.579Z,15.71
2016-06-17T00:29:16.579Z,15.67
2016-06-17T00:29:26.579Z,15.71
2016-06-17T00:29:36.579Z,15.75
2016-06-17T00:29:46.594Z,15.78
2016-06-17T00:29:56.610Z,15.82
2016-06-17T00:30:06.630Z,15.8
2016-06-17T00:30:16.630Z,15.67
2016-06-17T00:30:26.630Z,15.74
2016-06-17T00:30:36.630Z,15.65
2016-06-17T00:30:46.473Z,15.69
2016-06-17T00:30:56.520Z,15.65
2016-06-17T00:31:06.648Z,15.78
2016-06-17T00:31:16.648Z,15.71
2016-06-17T00:31:26.648Z,15.72
2016-06-17T00:31:36.664Z,15.76
2016-06-17T00:31:46.664Z,15.68
2016-06-17T00:31:56.664Z,15.76
2016-06-17T00:32:06.668Z,15.72
2016-06-17T00:32:16.683Z,15.67
2016-06-17T00:32:26.683Z,15.74
2016-06-17T00:32:36.683Z,15.6
2016-06-17T00:32:46.699Z,15.67
2016-06-17T00:32:56.699Z,15.76
2016-06-17T00:33:06.702Z,15.72
2016-06-17T00:33:16.702Z,15.67
2016-06-17T00:33:26.561Z,15.71
2016-06-17T00:33:36.718Z,15.68
2016-06-17T00:33:46.733Z,15.71
2016-06-17T00:33:56.733Z,15.74
2016-06-17T00:34:06.737Z,15.69
2016-06-17T00:34:16.753Z,15.8
2016-06-17T00:34:26.753Z,15.6
2016-06-17T00:34:36.753Z,15.68
2016-06-17T00:34:46.769Z,15.74
2016-06-17T00:34:56.769Z,15.6
2016-06-17T00:35:06.772Z,15.71
2016-06-17T00:35:16.615Z,15.64
2016-06-17T00:35:26.787Z,15.71
2016-06-17T00:35:36.787Z,15.72
2016-06-17T00:35:46.803Z,15.65
2016-06-17T00:35:56.803Z,15.72
2016-06-17T00:36:06.807Z,15.62
2016-06-17T00:36:16.807Z,15.76
2016-06-17T00:36:26.822Z,15.76
2016-06-17T00:36:36.822Z,15.75
2016-06-17T00:36:46.822Z,15.78
2016-06-17T00:36:56.854Z,15.72
2016-06-17T00:37:06.841Z,15.76
2016-06-17T00:37:16.841Z,15.74
2016-06-17T00:37:26.857Z,15.74
2016-06-17T00:37:36.857Z,15.75
2016-06-17T00:37:46.700Z,15.72
2016-06-17T00:37:56.857Z,15.76
2016-06-17T00:38:06.876Z,15.76
2016-06-17T00:38:16.876Z,15.67
2016-06-17T00:38:26.876Z,15.8
2016-06-17T00:38:36.892Z,15.74
2016-06-17T00:38:46.908Z,15.75
2016-06-17T00:38:56.892Z,15.74
2016-06-17T00:39:06.895Z,15.82
2016-06-17T00:39:16.911Z,15.74
2016-06-17T00:39:26.911Z,15.78
2016-06-17T00:39:36.926Z,15.76
2016-06-17T00:39:46.926Z,15.8
2016-06-17T00:39:56.926Z,15.75
2016-06-17T00:40:06.945Z,15.69
2016-06-17T00:40:16.789Z,15.78
2016-06-17T00:40:26.945Z,15.62
2016-06-17T00:40:36.945Z,15.68
2016-06-17T00:40:46.960Z,15.75
2016-06-17T00:40:56.960Z,15.69
2016-06-17T00:41:06.964Z,15.71
2016-06-17T00:41:16.980Z,15.68
2016-06-17T00:41:26.980Z,15.74
2016-06-17T00:41:36.980Z,15.75
2016-06-17T00:41:46.996Z,15.74
2016-06-17T00:41:57.011Z,15.71
2016-06-17T00:42:07.000Z,15.78
2016-06-17T00:42:17.000Z,15.76
2016-06-17T00:42:26.859Z,15.78
2016-06-17T00:42:37.015Z,15.74
2016-06-17T00:42:47.031Z,15.76
2016-06-17T00:42:57.031Z,15.62
2016-06-17T00:43:07.034Z,15.74
2016-06-17T00:43:16.878Z,15.8
2016-06-17T00:43:27.050Z,15.83
2016-06-17T00:43:37.050Z,15.74
2016-06-17T00:43:47.050Z,15.75
2016-06-17T00:43:57.065Z,15.78
2016-06-17T00:44:07.068Z,15.74
2016-06-17T00:44:17.068Z,15.75
2016-06-17T00:44:27.084Z,15.74
2016-06-17T00:44:36.943Z,15.76
2016-06-17T00:44:47.084Z,15.8
2016-06-17T00:44:57.099Z,15.75
2016-06-17T00:45:07.102Z,15.74
2016-06-17T00:45:17.102Z,15.82
2016-06-17T00:45:27.118Z,15.72
2016-06-17T00:45:37.118Z,15.8
2016-06-17T00:45:47.118Z,15.82
2016-06-17T00:45:57.134Z,15.74
2016-06-17T00:46:06.981Z,15.78
2016-06-17T00:46:16.981Z,15.72
2016-06-17T00:46:27.138Z,15.72
2016-06-17T00:46:37.153Z,15.74
2016-06-17T00:46:47.153Z,15.75
2016-06-17T00:46:57.169Z,15.75
2016-06-17T00:47:07.173Z,15.71
2016-06-17T00:47:17.173Z,15.78
2016-06-17T00:47:27.173Z,15.75
2016-06-17T00:47:37.032Z,15.82
2016-06-17T00:47:47.189Z,15.74
2016-06-17T00:47:57.189Z,15.8
2016-06-17T00:48:07.207Z,15.71
2016-06-17T00:48:17.051Z,15.67
2016-06-17T00:48:27.207Z,15.75
2016-06-17T00:48:37.223Z,15.74
2016-06-17T00:48:47.223Z,15.76
2016-06-17T00:48:57.223Z,15.75
2016-06-17T00:49:07.241Z,15.78
2016-06-17T00:49:17.085Z,15.87
2016-06-17T00:49:27.241Z,15.69
2016-06-17T00:49:37.257Z,15.83
2016-06-17T00:49:47.257Z,15.75
2016-06-17T00:49:57.273Z,15.78
2016-06-17T00:50:07.260Z,15.84
2016-06-17T00:50:17.276Z,15.72
2016-06-17T00:50:27.276Z,15.75
2016-06-17T00:50:37.276Z,15.84
2016-06-17T00:50:47.276Z,15.78
2016-06-17T00:50:57.291Z,15.78
2016-06-17T00:51:07.294Z,15.78
2016-06-17T00:51:17.310Z,15.84
2016-06-17T00:51:27.310Z,15.75
2016-06-17T00:51:37.310Z,15.84
2016-06-17T00:51:47.310Z,15.76
2016-06-17T00:51:57.169Z,15.82
2016-06-17T00:52:07.329Z,15.8
2016-06-17T00:52:17.329Z,15.76
2016-06-17T00:52:27.360Z,15.72
2016-06-17T00:52:37.204Z,15.69
2016-06-17T00:52:47.344Z,15.76
2016-06-17T00:52:57.360Z,15.78
2016-06-17T00:53:07.363Z,15.72
2016-06-17T00:53:17.363Z,15.71
2016-06-17T00:53:27.378Z,15.75
2016-06-17T00:53:37.378Z,15.78
2016-06-17T00:53:47.378Z,15.74
2016-06-17T00:53:57.378Z,15.78
2016-06-17T00:54:07.397Z,15.76
2016-06-17T00:54:17.397Z,15.78
2016-06-17T00:54:27.413Z,15.8
2016-06-17T00:54:37.413Z,15.75
2016-06-17T00:54:47.413Z,15.87
2016-06-17T00:54:57.413Z,15.78
2016-06-17T00:55:07.431Z,15.72
2016-06-17T00:55:17.275Z,15.72
2016-06-17T00:55:27.447Z,15.82
2016-06-17T00:55:37.447Z,15.86
2016-06-17T00:55:47.447Z,15.71
2016-06-17T00:55:57.463Z,15.76
2016-06-17T00:56:07.466Z,15.83
2016-06-17T00:56:17.309Z,15.71
2016-06-17T00:56:27.466Z,15.87
2016-06-17T00:56:37.481Z,15.75
2016-06-17T00:56:47.481Z,15.72
2016-06-17T00:56:57.481Z,15.87
2016-06-17T00:57:07.501Z,15.74
2016-06-17T00:57:17.345Z,15.8
2016-06-17T00:57:27.501Z,15.71
2016-06-17T00:57:37.501Z,15.71
2016-06-17T00:57:47.532Z,15.83
2016-06-17T00:57:57.532Z,15.72
2016-06-17T00:58:07.519Z,15.83
2016-06-17T00:58:17.535Z,15.78
2016-06-17T00:58:27.535Z,15.8
2016-06-17T00:58:37.551Z,15.72
2016-06-17T00:58:47.551Z,15.72
2016-06-17T00:58:57.551Z,15.82
2016-06-17T00:59:07.570Z,15.8
2016-06-17T00:59:17.570Z,15.78
2016-06-17T00:59:27.414Z,15.78
2016-06-17T00:59:37.414Z,15.8
2016-06-17T00:59:47.430Z,15.78
2016-06-17T00:59:57.586Z,15.76
2016-06-17T01:00:07.448Z,15.83
2016-06-17T01:00:17.605Z,15.72
2016-06-17T01:00:27.620Z,15.83
2016-06-17T01:00:37.605Z,15.74
2016-06-17T01:00:47.620Z,15.83
2016-06-17T01:00:57.620Z,15.83
2016-06-17T01:01:07.623Z,15.78
2016-06-17T01:01:17.639Z,15.78
2016-06-17T01:01:27.483Z,15.74
2016-06-17T01:01:37.498Z,15.75
2016-06-17T01:01:47.498Z,15.8
2016-06-17T01:01:57.654Z,15.83
2016-06-17T01:02:07.502Z,15.86
2016-06-17T01:02:17.674Z,15.78
2016-06-17T01:02:27.518Z,15.74
2016-06-17T01:02:37.518Z,15.74
2016-06-17T01:02:47.690Z,15.8
2016-06-17T01:02:57.690Z,15.82
2016-06-17T01:03:07.693Z,15.83
2016-06-17T01:03:17.693Z,15.75
2016-06-17T01:03:27.552Z,15.78
2016-06-17T01:03:37.708Z,15.78
2016-06-17T01:03:47.740Z,15.71
2016-06-17T01:03:57.708Z,15.82
2016-06-17T01:04:07.727Z,15.75
2016-06-17T01:04:17.727Z,15.83
2016-06-17T01:04:27.571Z,15.76
2016-06-17T01:04:37.743Z,15.78
2016-06-17T01:04:47.758Z,15.75
2016-06-17T01:04:57.743Z,15.74
2016-06-17T01:05:07.762Z,15.86
2016-06-17T01:05:17.762Z,15.78
2016-06-17T01:05:27.606Z,15.76
2016-06-17T01:05:37.778Z,15.76
2016-06-17T01:05:47.793Z,15.78
2016-06-17T01:05:57.793Z,15.74
2016-06-17T01:06:07.782Z,15.82
2016-06-17T01:06:17.797Z,15.75
2016-06-17T01:06:27.797Z,15.82
2016-06-17T01:06:37.813Z,15.74
2016-06-17T01:06:47.813Z,15.83
2016-06-17T01:06:57.813Z,15.8
2016-06-17T01:07:07.832Z,15.76
2016-06-17T01:07:17.832Z,15.78
2016-06-17T01:07:27.832Z,15.84
2016-06-17T01:07:37.832Z,15.87
2016-06-17T01:07:47.847Z,15.82
2016-06-17T01:07:57.847Z,15.86
2016-06-17T01:08:07.867Z,15.78
2016-06-17T01:08:17.711Z,15.86
2016-06-17T01:08:27.883Z,15.75
2016-06-17T01:08:37.867Z,15.84
2016-06-17T01:08:47.883Z,15.84
2016-06-17T01:08:57.883Z,15.87
2016-06-17T01:09:07.886Z,15.83
2016-06-17T01:09:17.917Z,15.82
2016-06-17T01:09:27.745Z,15.8
2016-06-17T01:09:37.901Z,15.75
2016-06-17T01:09:47.917Z,15.87
2016-06-17T01:09:57.917Z,15.82
2016-06-17T01:10:07.920Z,15.76
2016-06-17T01:10:17.920Z,15.8
2016-06-17T01:10:27.935Z,15.83
2016-06-17T01:10:37.935Z,15.86
2016-06-17T01:10:47.951Z,15.75
2016-06-17T01:10:57.951Z,15.86
2016-06-17T01:11:07.955Z,15.87
2016-06-17T01:11:17.955Z,15.86
2016-06-17T01:11:27.971Z,15.83
2016-06-17T01:11:37.814Z,15.87
2016-06-17T01:11:47.814Z,15.8
2016-06-17T01:11:57.971Z,15.82
2016-06-17T01:12:07.989Z,15.84
2016-06-17T01:12:17.989Z,15.76
2016-06-17T01:12:28.005Z,15.83
2016-06-17T01:12:38.005Z,15.84
2016-06-17T01:12:48.005Z,15.87
2016-06-17T01:12:58.005Z,15.89
2016-06-17T01:13:08.024Z,15.84
2016-06-17T01:13:17.867Z,15.84
2016-06-17T01:13:28.039Z,15.86
2016-06-17T01:13:37.883Z,15.8
2016-06-17T01:13:48.039Z,15.9
2016-06-17T01:13:58.055Z,15.87
2016-06-17T01:14:08.059Z,15.86
2016-06-17T01:14:18.059Z,15.83
2016-06-17T01:14:27.918Z,15.84
2016-06-17T01:14:38.074Z,15.78
2016-06-17T01:14:48.074Z,15.9
2016-06-17T01:14:58.090Z,15.87
2016-06-17T01:15:08.094Z,15.82
2016-06-17T01:15:18.094Z,15.87
2016-06-17T01:15:28.094Z,15.78
2016-06-17T01:15:37.953Z,15.82
2016-06-17T01:15:48.110Z,15.86
2016-06-17T01:15:58.110Z,15.86
2016-06-17T01:16:08.113Z,15.87
2016-06-17T01:16:18.144Z,15.89
2016-06-17T01:16:28.128Z,15.84
2016-06-17T01:16:38.144Z,15.87
2016-06-17T01:16:48.144Z,15.86
2016-06-17T01:16:58.144Z,15.86
2016-06-17T01:17:08.147Z,15.86
2016-06-17T01:17:18.163Z,15.86
2016-06-17T01:17:28.163Z,15.9
2016-06-17T01:17:38.178Z,15.87
2016-06-17T01:17:48.178Z,15.83
2016-06-17T01:17:58.178Z,15.89
2016-06-17T01:18:08.182Z,15.86
2016-06-17T01:18:18.042Z,15.86
2016-06-17T01:18:28.198Z,15.84
2016-06-17T01:18:38.198Z,15.9
2016-06-17T01:18:48.213Z,15.87
2016-06-17T01:18:58.213Z,15.87
2016-06-17T01:19:08.216Z,15.86
2016-06-17T01:19:18.232Z,15.84
2016-06-17T01:19:28.232Z,15.86
2016-06-17T01:19:38.263Z,15.86
2016-06-17T01:19:48.232Z,15.87
2016-06-17T01:19:58.248Z,15.8
2016-06-17T01:20:08.252Z,15.82
2016-06-17T01:20:18.267Z,15.86
2016-06-17T01:20:28.111Z,15.86
2016-06-17T01:20:38.267Z,15.84
2016-06-17T01:20:48.267Z,15.84
2016-06-17T01:20:58.283Z,15.83
2016-06-17T01:21:08.287Z,15.86
2016-06-17T01:21:18.303Z,15.84
2016-06-17T01:21:28.146Z,15.87
2016-06-17T01:21:38.303Z,15.84
2016-06-17T01:21:48.318Z,15.84
2016-06-17T01:21:58.318Z,15.86
2016-06-17T01:22:08.320Z,15.86
2016-06-17T01:22:18.336Z,15.8
2016-06-17T01:22:28.320Z,15.83
2016-06-17T01:22:38.336Z,15.9
2016-06-17T01:22:48.351Z,15.89
2016-06-17T01:22:58.336Z,15.84
2016-06-17T01:23:08.200Z,15.83
2016-06-17T01:23:18.200Z,15.84
2016-06-17T01:23:28.372Z,15.78
2016-06-17T01:23:38.216Z,15.83
2016-06-17T01:23:48.372Z,15.83
2016-06-17T01:23:58.372Z,15.78
2016-06-17T01:24:08.390Z,15.86
2016-06-17T01:24:18.405Z,15.84
2016-06-17T01:24:28.390Z,15.84
2016-06-17T01:24:38.405Z,15.86
2016-06-17T01:24:48.249Z,15.8
2016-06-17T01:24:58.405Z,15.86
2016-06-17T01:25:08.409Z,15.83
2016-06-17T01:25:18.425Z,15.84
2016-06-17T01:25:28.425Z,15.8
2016-06-17T01:25:38.425Z,15.84
2016-06-17T01:25:48.441Z,15.82
2016-06-17T01:25:58.441Z,15.82
2016-06-17T01:26:08.460Z,15.89
2016-06-17T01:26:18.460Z,15.86
2016-06-17T01:26:28.460Z,15.8
2016-06-17T01:26:38.460Z,15.87
2016-06-17T01:26:48.476Z,15.8
2016-06-17T01:26:58.476Z,15.84
2016-06-17T01:27:08.494Z,15.8
2016-06-17T01:27:18.479Z,15.83
2016-06-17T01:27:28.494Z,15.86
2016-06-17T01:27:38.494Z,15.71
2016-06-17T01:27:48.510Z,15.76
2016-06-17T01:27:58.510Z,15.76
2016-06-17T01:28:08.513Z,15.72
2016-06-17T01:28:18.529Z,15.75
2016-06-17T01:28:28.529Z,15.78
2016-06-17T01:28:38.529Z,15.8
2016-06-17T01:28:48.388Z,15.74
2016-06-17T01:28:58.544Z,15.67
2016-06-17T01:29:08.548Z,15.76
2016-06-17T01:29:18.564Z,15.82
2016-06-17T01:29:28.564Z,15.76
2016-06-17T01:29:38.564Z,15.71
2016-06-17T01:29:48.564Z,15.74
2016-06-17T01:29:58.580Z,15.71
2016-06-17T01:30:08.583Z,15.82
2016-06-17T01:30:18.598Z,15.78
2016-06-17T01:30:28.598Z,15.72
2016-06-17T01:30:38.598Z,15.75
2016-06-17T01:30:48.614Z,15.8
2016-06-17T01:30:58.458Z,15.76
2016-06-17T01:31:08.618Z,15.75
2016-06-17T01:31:18.477Z,15.82
2016-06-17T01:31:28.477Z,15.76
2016-06-17T01:31:38.633Z,15.76
2016-06-17T01:31:48.477Z,15.72
2016-06-17T01:31:58.649Z,15.72
2016-06-17T01:32:08.653Z,15.68
2016-06-17T01:32:18.653Z,15.82
2016-06-17T01:32:28.669Z,15.74
2016-06-17T01:32:38.669Z,15.68
2016-06-17T01:32:48.684Z,15.76
2016-06-17T01:32:58.684Z,15.82
2016-06-17T01:33:08.530Z,15.76
2016-06-17T01:33:18.702Z,15.75
2016-06-17T01:33:28.546Z,15.78
2016-06-17T01:33:38.702Z,15.71
2016-06-17T01:33:48.546Z,15.71
2016-06-17T01:33:58.702Z,15.69
2016-06-17T01:34:08.722Z,15.71
2016-06-17T01:34:18.722Z,15.75
2016-06-17T01:34:28.722Z,15.78
2016-06-17T01:34:38.737Z,15.71
2016-06-17T01:34:48.737Z,15.6
2016-06-17T01:34:58.737Z,15.74
2016-06-17T01:35:08.757Z,15.72
2016-06-17T01:35:18.757Z,15.76
2016-06-17T01:35:28.772Z,15.68
2016-06-17T01:35:38.772Z,15.76
2016-06-17T01:35:48.616Z,15.69
2016-06-17T01:35:58.772Z,15.8
2016-06-17T01:36:08.792Z,15.69
2016-06-17T01:36:18.792Z,15.75
2016-06-17T01:36:28.636Z,15.76
2016-06-17T01:36:38.808Z,15.72
2016-06-17T01:36:48.808Z,15.69
2016-06-17T01:36:58.667Z,15.65
2016-06-17T01:37:08.826Z,15.72
2016-06-17T01:37:18.826Z,15.78
2016-06-17T01:37:28.826Z,15.72
2016-06-17T01:37:38.842Z,15.76
2016-06-17T01:37:48.842Z,15.71
2016-06-17T01:37:58.842Z,15.69
2016-06-17T01:38:08.846Z,15.72
2016-06-17T01:38:18.862Z,15.71
2016-06-17T01:38:28.862Z,15.72
2016-06-17T01:38:38.877Z,15.68
2016-06-17T01:38:48.862Z,15.74
2016-06-17T01:38:58.877Z,15.74
2016-06-17T01:39:08.879Z,15.65
2016-06-17T01:39:18.723Z,15.67
2016-06-17T01:39:28.895Z,15.69
2016-06-17T01:39:38.895Z,15.69
2016-06-17T01:39:48.895Z,15.72
2016-06-17T01:39:58.910Z,15.69
2016-06-17T01:40:08.914Z,15.65
2016-06-17T01:40:18.930Z,15.57
2016-06-17T01:40:28.930Z,15.65
2016-06-17T01:40:38.930Z,15.6
2016-06-17T01:40:48.774Z,15.69
2016-06-17T01:40:58.930Z,15.67
2016-06-17T01:41:08.950Z,15.62
2016-06-17T01:41:18.809Z,15.72
2016-06-17T01:41:28.965Z,15.67
2016-06-17T01:41:38.809Z,15.71
2016-06-17T01:41:48.965Z,15.64
2016-06-17T01:41:58.981Z,15.68
2016-06-17T01:42:08.828Z,15.6
2016-06-17T01:42:19.000Z,15.6
2016-06-17T01:42:29.000Z,15.69
2016-06-17T01:42:39.000Z,15.62
2016-06-17T01:42:48.843Z,15.64
2016-06-17T01:42:59.000Z,15.64
2016-06-17T01:43:09.019Z,15.71
2016-06-17T01:43:18.863Z,15.62
2016-06-17T01:43:29.035Z,15.62
2016-06-17T01:43:38.879Z,15.59
2016-06-17T01:43:49.035Z,15.71
2016-06-17T01:43:59.035Z,15.67
2016-06-17T01:44:09.038Z,15.6
2016-06-17T01:44:19.053Z,15.65
2016-06-17T01:44:28.913Z,15.68
2016-06-17T01:44:39.053Z,15.59
2016-06-17T01:44:49.069Z,15.62
2016-06-17T01:44:58.913Z,15.64
2016-06-17T01:45:08.916Z,15.64
2016-06-17T01:45:19.088Z,15.59
2016-06-17T01:45:29.088Z,15.64
2016-06-17T01:45:39.103Z,15.65
2016-06-17T01:45:49.119Z,15.59
2016-06-17T01:45:59.119Z,15.57
2016-06-17T01:46:08.967Z,15.68
2016-06-17T01:46:18.967Z,15.6
2016-06-17T01:46:29.123Z,15.65
2016-06-17T01:46:39.123Z,15.67
2016-06-17T01:46:49.139Z,15.64
2016-06-17T01:46:59.139Z,15.59
2016-06-17T01:47:09.143Z,15.67
2016-06-17T01:47:19.158Z,15.56
2016-06-17T01:47:29.174Z,15.64
2016-06-17T01:47:39.158Z,15.65
2016-06-17T01:47:49.158Z,15.57
2016-06-17T01:47:59.174Z,15.64
2016-06-17T01:48:09.176Z,15.62
2016-06-17T01:48:19.176Z,15.65
2016-06-17T01:48:29.191Z,15.67
2016-06-17T01:48:39.191Z,15.59
2016-06-17T01:48:49.207Z,15.59
2016-06-17T01:48:59.207Z,15.65
2016-06-17T01:49:09.211Z,15.59
2016-06-17T01:49:19.211Z,15.6
2016-06-17T01:49:29.227Z,15.68
2016-06-17T01:49:39.242Z,15.6
2016-06-17T01:49:49.227Z,15.57
2016-06-17T01:49:59.227Z,15.64
2016-06-17T01:50:09.246Z,15.59
2016-06-17T01:50:19.090Z,15.59
2016-06-17T01:50:29.106Z,15.62
2016-06-17T01:50:39.262Z,15.6
2016-06-17T01:50:49.262Z,15.59
2016-06-17T01:50:59.262Z,15.57
2016-06-17T01:51:09.124Z,15.54
2016-06-17T01:51:19.281Z,15.56
2016-06-17T01:51:29.140Z,15.57
2016-06-17T01:51:39.296Z,15.57
2016-06-17T01:51:49.140Z,15.6
2016-06-17T01:51:59.296Z,15.54
2016-06-17T01:52:09.316Z,15.57
2016-06-17T01:52:19.316Z,15.68
2016-06-17T01:52:29.316Z,15.6
2016-06-17T01:52:39.331Z,15.54
2016-06-17T01:52:49.331Z,15.57
2016-06-17T01:52:59.175Z,15.57
2016-06-17T01:53:09.350Z,15.57
2016-06-17T01:53:19.350Z,15.54
2016-06-17T01:53:29.350Z,15.57
2016-06-17T01:53:39.366Z,15.57
2016-06-17T01:53:49.366Z,15.59
2016-06-17T01:53:59.366Z,15.69
2016-06-17T01:54:09.369Z,15.6
2016-06-17T01:54:19.384Z,15.57
2016-06-17T01:54:29.384Z,15.54
2016-06-17T01:54:39.384Z,15.6
2016-06-17T01:54:49.400Z,15.56
2016-06-17T01:54:59.400Z,15.6
2016-06-17T01:55:09.420Z,15.57
2016-06-17T01:55:19.420Z,15.57
2016-06-17T01:55:29.435Z,15.59
2016-06-17T01:55:39.435Z,15.53
2016-06-17T01:55:49.435Z,15.57
2016-06-17T01:55:59.435Z,15.62
2016-06-17T01:56:09.441Z,15.54
2016-06-17T01:56:19.441Z,15.59
2016-06-17T01:56:29.457Z,15.54
2016-06-17T01:56:39.457Z,15.59
2016-06-17T01:56:49.472Z,15.59
2016-06-17T01:56:59.472Z,15.6
2016-06-17T01:57:09.477Z,15.57
2016-06-17T01:57:19.493Z,15.57
2016-06-17T01:57:29.493Z,15.59
2016-06-17T01:57:39.493Z,15.59
2016-06-17T01:57:49.493Z,15.54
2016-06-17T01:57:59.509Z,15.59
2016-06-17T01:58:09.513Z,15.59
2016-06-17T01:58:19.372Z,15.59
2016-06-17T01:58:29.528Z,15.6
2016-06-17T01:58:39.528Z,15.64
2016-06-17T01:58:49.372Z,15.59
2016-06-17T01:58:59.372Z,15.59
2016-06-17T01:59:09.549Z,15.59
2016-06-17T01:59:19.549Z,15.62
2016-06-17T01:59:29.565Z,15.62
2016-06-17T01:59:39.565Z,15.57
2016-06-17T01:59:49.565Z,15.57
2016-06-17T01:59:59.408Z,15.62
2016-06-17T02:00:09.585Z,15.56
2016-06-17T02:00:19.585Z,15.64
2016-06-17T02:00:29.601Z,15.59
2016-06-17T02:00:39.601Z,15.44
2016-06-17T02:00:49.601Z,15.59
2016-06-17T02:00:59.601Z,15.59
2016-06-17T02:01:09.605Z,15.6
2016-06-17T02:01:19.620Z,15.57
2016-06-17T02:01:29.636Z,15.65
2016-06-17T02:01:39.620Z,15.6
2016-06-17T02:01:49.636Z,15.54
2016-06-17T02:01:59.636Z,15.59
2016-06-17T02:02:09.656Z,15.57
2016-06-17T02:02:19.656Z,15.54
2016-06-17T02:02:29.499Z,15.59
2016-06-17T02:02:39.515Z,15.6
2016-06-17T02:02:49.671Z,15.6
2016-06-17T02:02:59.515Z,15.54
2016-06-17T02:03:09.675Z,15.65
2016-06-17T02:03:19.691Z,15.59
2016-06-17T02:03:29.691Z,15.57
2016-06-17T02:03:39.691Z,15.57
2016-06-17T02:03:49.707Z,15.54
2016-06-17T02:03:59.707Z,15.6
2016-06-17T02:04:09.553Z,15.62
2016-06-17T02:04:19.725Z,15.6
2016-06-17T02:04:29.725Z,15.56
2016-06-17T02:04:39.725Z,15.6
2016-06-17T02:04:49.741Z,15.59
2016-06-17T02:04:59.741Z,15.62
2016-06-17T02:05:09.760Z,15.59
2016-06-17T02:05:19.760Z,15.59
2016-06-17T02:05:29.760Z,15.59
2016-06-17T02:05:39.760Z,15.59
2016-06-17T02:05:49.760Z,15.6
2016-06-17T02:05:59.776Z,15.62
2016-06-17T02:06:09.780Z,15.62
2016-06-17T02:06:19.639Z,15.6
2016-06-17T02:06:29.796Z,15.59
2016-06-17T02:06:39.796Z,15.54
2016-06-17T02:06:49.811Z,15.56
2016-06-17T02:06:59.811Z,15.56
2016-06-17T02:07:09.815Z,15.6
2016-06-17T02:07:19.815Z,15.59
2016-06-17T02:07:29.831Z,15.6
2016-06-17T02:07:39.831Z,15.6
2016-06-17T02:07:49.831Z,15.54
2016-06-17T02:07:59.847Z,15.54
2016-06-17T02:08:09.866Z,15.56
2016-06-17T02:08:19.851Z,15.51
2016-06-17T02:08:29.866Z,15.51
2016-06-17T02:08:39.866Z,15.41
2016-06-17T02:08:49.866Z,15.56
2016-06-17T02:08:59.882Z,15.54
2016-06-17T02:09:09.885Z,15.51
2016-06-17T02:09:19.885Z,15.51